Nathaniel B. Palmer — WBP3210 — position and weather

sailwx.info

Track history (hours):
 
Tides and Currents Weather Stations Pressure Air Temp Water Temp Dewpoint Dewpoint Depression Visibility Wind Speed Wind Dir Waves Ship Positions

Oceanographic research ship Nathaniel B. Palmer (USA)

Contact: Ethan Norris, ethan.norris.contractor@usap.gov

Detailed information on ship capabilities available from University of Delaware's Ocean Information Center and ARCUS's ALIAS (Arctic Logistics Information and Support) project.

Owner: OFFSHORE SERVICE VESSELS, Cut Off, LA. More information available from US FCC via Universal Licensing System and Coast Guard Vessel Documentation Center.

Last reported at 2018-Apr-22 13:00 UTC. Time now 2018-Apr-22 13:55 UTC.
Position S 67°00' W 127°42'.

Type: Other ship. MMSI: 366610000.

Wind from 110 at 17 knots

Barometer 991.0 mb
Air temperature -2.9 ° C
Water temperature -1.5 ° C

Date/timePositionNaut miles runAvg speedWind from/ knotsBaromVisibWave heightAir tempDewpointWater temp
2018-Apr-22 13:00S 67°00' W 127°42'0 0.0 110 / 17991.0 -2.9 -1.5
2018-Apr-22 12:00S 67°00' W 127°42'0 0.0 110 / 18990.3 -3.3 -1.5
2018-Apr-22 11:00S 67°00' W 127°42'0 0.0 110 / 19989.4 -3.0 -1.5
2018-Apr-22 10:00S 67°00' W 127°42'8 7.6 110 / 18988.8 -3.0 -1.5
2018-Apr-22 09:00S 66°54' W 127°54'9 9.4 110 / 18988.2 -3.0 -1.5
2018-Apr-22 08:00S 66°54' W 128°18'9 9.4 110 / 19987.7 -2.8 -1.4
2018-Apr-22 07:00S 66°54' W 128°42'9 9.4 100 / 20987.3 -3.0 -1.4
2018-Apr-22 06:00S 66°54' W 129°06'7 7.1 100 / 19987.1 -3.1 -1.5
2018-Apr-22 05:00S 66°54' W 129°24'2 2.4 100 / 19986.9 -3.0 -1.5
2018-Apr-22 04:00S 66°54' W 129°30'6 6.0 090 / 18987.0 -3.0 -1.5
2018-Apr-22 03:00S 67°00' W 129°30'0 0.0 090 / 18987.1 -3.2 -1.5
2018-Apr-22 02:00S 67°00' W 129°30'0 0.0 090 / 16987.4 -3.2 -1.5
2018-Apr-22 01:00S 67°00' W 129°30'7 7.0 080 / 15987.6 -3.4 -1.5
2018-Apr-22 00:00S 67°00' W 129°48'1111.1 080 / 15987.4 -3.3 -1.4
2018-Apr-21 23:00S 66°54' W 130°12'1313.2 080 / 15987.3 -2.9 -1.4
2018-Apr-21 22:00S 67°00' W 130°42'1111.1 080 / 15987.4 -3.0 -1.4
2018-Apr-21 21:00S 66°54' W 131°06'6 6.4 080 / 15987.6 -2.7 -1.5
2018-Apr-21 20:00S 67°00' W 131°12'0 0.0 070 / 13987.9 -2.4 -1.5
2018-Apr-21 19:00S 67°00' W 131°12'0 0.0 070 / 13988.2 -2.5 -1.5
2018-Apr-21 18:00S 67°00' W 131°12'0 0.0 070 / 13988.5 -2.3 -1.5
2018-Apr-21 17:00S 67°00' W 131°12'6 6.4 070 / 11988.9 -2.2 -1.5
2018-Apr-21 16:00S 66°54' W 131°18'1111.1 060 / 11989.1 -2.3 -1.4
2018-Apr-21 15:00S 67°00' W 131°42'1313.2 050 / 10989.4 -2.1 -1.4
2018-Apr-21 14:00S 66°54' W 132°12'9 9.4 050 / 10989.6 -2.0 -1.4
2018-Apr-21 13:00S 66°54' W 132°36'9 9.3 050 / 10989.8 -2.0 -1.4
2018-Apr-21 12:00S 67°00' W 132°54'2 2.3 040 / 10990.3 -2.1 -1.4
2018-Apr-21 11:00S 67°00' W 133°00'0 0.0 050 / 8990.9 -2.0 -1.5
2018-Apr-21 10:00S 67°00' W 133°00'0 0.0 040 / 6991.4 -2.1 -1.4
2018-Apr-21 09:00S 67°00' W 133°00'6 6.0 030 / 5992.1 -2.1 -1.4
2018-Apr-21 08:00S 66°54' W 133°00'1111.1 360 / 5992.6 -2.0 -1.4
2018-Apr-21 07:00S 67°00' W 133°24'9 9.4 350 / 7993.0 -1.9 -1.4
2018-Apr-21 06:00S 67°00' W 133°48'9 9.4 340 / 7993.4 -1.8 -1.4
2018-Apr-21 05:00S 67°00' W 134°12'2 2.3 350 / 4993.9 -1.8 -1.5
2018-Apr-21 04:00S 67°00' W 134°18'0 0.0 320 / 6994.6 -1.7 -1.5
2018-Apr-21 03:00S 67°00' W 134°18'0 0.0 290 / 7995.2 -1.6 -1.5
2018-Apr-21 02:00S 67°00' W 134°18'0 0.0 290 / 10995.8 -1.5 -1.5
2018-Apr-21 01:00S 67°00' W 134°18'1211.7 300 / 9996.4 -1.5 -1.4
2018-Apr-21 00:00S 67°00' W 134°48'9 9.4 300 / 9996.7 -1.6 -1.4
2018-Apr-20 23:00S 67°00' W 135°12'9 9.3 300 / 10997.1 -1.7 -1.3
2018-Apr-20 22:00S 66°54' W 135°30'6 6.0 310 / 11997.5 -1.6 -1.3
2018-Apr-20 21:00S 67°00' W 135°30'6 6.0 300 / 12998.2 -1.6 -1.3
2018-Apr-20 20:00S 66°54' W 135°30'6 6.0 300 / 14998.6 -1.9 -1.3
2018-Apr-20 19:00S 67°00' W 135°30'5 4.7 300 / 15999.1 -1.8 -1.3
2018-Apr-20 18:00S 67°00' W 135°42'9 9.4 300 / 15999.4 -1.8 -1.3
2018-Apr-20 17:00S 67°00' W 136°06'1111.1 300 / 15999.8 -1.8 -1.3
2018-Apr-20 16:00S 66°54' W 136°30'7 7.1 300 / 161000.3 -1.7 -1.3
2018-Apr-20 15:00S 66°54' W 136°48'0 0.0 300 / 171000.8 -1.7 -1.3
2018-Apr-20 14:00S 66°54' W 136°48'0 0.0 300 / 171001.4 -1.9 -1.3
2018-Apr-20 13:00S 66°54' W 136°48'0 0.0 300 / 191002.0 -1.9 -1.2
2018-Apr-20 12:00S 66°54' W 136°48'2 2.4 300 / 191002.5 -1.9 -1.2
2018-Apr-20 11:00S 66°54' W 136°54'9 9.3 300 / 191002.9 -2.1 -1.3
2018-Apr-20 10:00S 67°00' W 137°12'7 7.0 310 / 191003.5 -2.2 -1.4
2018-Apr-20 09:00S 67°00' W 137°30'1313.2 310 / 161004.0 -2.1 -1.4
2018-Apr-20 08:00S 66°54' W 138°00'5 4.7 310 / 161004.4 -2.1 -1.4
2018-Apr-20 07:00S 66°54' W 138°12'0 0.0 310 / 181004.7 -2.0 -1.4
2018-Apr-20 06:00S 66°54' W 138°12'0 0.0 320 / 171005.2 -2.1 -1.4
2018-Apr-20 05:00S 66°54' W 138°12'0 0.0 320 / 151005.7 -2.4 -1.4
2018-Apr-20 04:00S 66°54' W 138°12'9 9.3 320 / 151006.2 -2.5 -1.4
2018-Apr-20 03:00S 67°00' W 138°30'1111.1 310 / 131006.6 -2.3 -1.4
2018-Apr-20 02:00S 66°54' W 138°54'9 9.4 320 / 121006.9 -2.4 -1.4
2018-Apr-20 01:00S 66°54' W 139°18'6 6.4 330 / 121007.1 -2.3 -1.3
2018-Apr-20 00:00S 67°00' W 139°24'0 0.0 330 / 101007.6 -2.4 -1.3
2018-Apr-19 23:00S 67°00' W 139°24'6 6.0 320 / 101008.0 -2.4 -1.3
2018-Apr-19 22:00S 66°54' W 139°24'2 2.4 310 / 111008.2 -2.7 -1.3
2018-Apr-19 21:00S 66°54' W 139°30'5 4.7 310 / 111008.3 -3.0 -1.3
2018-Apr-19 20:00S 66°54' W 139°42'1313.2 300 / 101008.3 -3.1 -1.3
2018-Apr-19 19:00S 67°00' W 140°12'9 9.4 290 / 111008.4 -3.1 -1.3
2018-Apr-19 18:00S 67°00' W 140°36'6 6.4 280 / 121008.6 -3.0 -1.3
2018-Apr-19 17:00S 66°54' W 140°42'6 6.0 280 / 111008.5 -3.1 -1.3
2018-Apr-19 16:00S 67°00' W 140°42'6 6.0 260 / 101008.6 -2.8 -1.3
2018-Apr-19 15:00S 66°54' W 140°42'6 6.4 240 / 121008.5 -2.4 -1.3
2018-Apr-19 14:00S 67°00' W 140°48'5 4.7 250 / 151008.6 -2.2 -1.3
2018-Apr-19 13:00S 67°00' W 141°00'1111.1 250 / 171008.5 -2.0 -1.4
2018-Apr-19 12:00S 66°54' W 141°24'9 9.4 260 / 151008.3 -1.7 -1.4
2018-Apr-19 11:00S 66°54' W 141°48'5 4.7 270 / 161008.3 -1.6 -1.4
2018-Apr-19 10:00S 66°54' W 142°00'0 0.0 270 / 171008.3 -1.5 -1.2
2018-Apr-19 09:00S 66°54' W 142°00'0 0.0 270 / 171007.8 -1.4 -1.2
2018-Apr-19 08:00S 66°54' W 142°00'6 6.4 270 / 201007.4 -1.4 -1.2
2018-Apr-19 07:00S 67°00' W 142°06'9 9.4 260 / 161007.4 -1.3 -1.2
2018-Apr-19 06:00S 67°00' W 142°30'1211.7 250 / 171007.2 -1.3 -1.1
2018-Apr-19 05:00S 67°00' W 143°00'7 7.0 260 / 181007.1 -1.3 -1.0
2018-Apr-19 04:00S 67°00' W 143°18'0 0.0 260 / 181007.2 -1.3 -1.0
2018-Apr-19 03:00S 67°00' W 143°18'0 0.0 250 / 201007.1 -1.3 -1.0
2018-Apr-19 02:00S 67°00' W 143°18'6 6.0 250 / 211006.8 -1.4 -1.0
2018-Apr-19 01:00S 66°54' W 143°18'8 7.6 250 / 211006.6 -1.4 -1.0
2018-Apr-19 00:00S 67°00' W 143°30'1111.1 250 / 211006.3 -1.5 -1.1
2018-Apr-18 23:00S 66°54' W 143°54'9 9.4 260 / 211006.2 -1.6 -1.2
2018-Apr-18 22:00S 66°54' W 144°18'7 7.1 260 / 201006.2 -1.6 -1.3
2018-Apr-18 21:00S 66°54' W 144°36'0 0.0 250 / 201006.1 -1.6 -1.3
2018-Apr-18 20:00S 66°54' W 144°36'0 0.0 250 / 211005.9 -1.4 -1.3
2018-Apr-18 19:00S 66°54' W 144°36'0 0.0 250 / 211005.6 -1.4 -1.3
2018-Apr-18 18:00S 66°54' W 144°36'7 7.1 250 / 211005.2 -1.3 -1.3
2018-Apr-18 17:00S 66°54' W 144°54'1111.1 250 / 221004.9 -1.4 -1.4
2018-Apr-18 16:00S 67°00' W 145°18'9 9.3 250 / 231004.9 -1.4 -1.4
2018-Apr-18 15:00S 66°54' W 145°36'9 9.3 250 / 241005.1 -1.3 -1.3
2018-Apr-18 14:00S 67°00' W 145°54'0 0.0 260 / 261005.1 -1.2 -1.2
2018-Apr-18 13:00S 67°00' W 145°54'0 0.0 250 / 271004.9 -1.1 -1.2
2018-Apr-18 12:00S 67°00' W 145°54'0 0.0 260 / 261004.4 -1.1 -1.2
2018-Apr-18 11:00S 67°00' W 145°54'6 6.4 260 / 201004.2 -1.5 -1.2
2018-Apr-18 10:00S 66°54' W 146°00'7 7.1 250 / 141004.3 -2.5 -1.2
2018-Apr-18 09:00S 66°54' W 146°18'9 9.4 240 / 131004.6 -2.7 -1.3
2018-Apr-18 08:00S 66°54' W 146°42'1111.1 240 / 131004.4 -2.6 -1.2
2018-Apr-18 07:00S 67°00' W 147°06'1111.1 230 / 171004.2 -2.0 -1.2
2018-Apr-18 06:00S 66°54' W 147°30'2 2.4 240 / 211004.0 -1.6 -1.3
2018-Apr-18 05:00S 66°54' W 147°36'6 6.0 240 / 231003.8 -1.6 -1.2
2018-Apr-18 04:00S 67°00' W 147°36'0 0.0 240 / 251003.5 -1.6 -1.2
2018-Apr-18 03:00S 67°00' W 147°36'6 6.4 240 / 251003.2 -1.6 -1.2
2018-Apr-18 02:00S 66°54' W 147°42'7 7.1 240 / 291003.0 -1.6 -1.2
2018-Apr-18 01:00S 66°54' W 148°00'1111.1 250 / 281002.7 -1.5 -1.3
2018-Apr-18 00:00S 67°00' W 148°24'1313.2 260 / 271003.1 -1.7 -1.3
2018-Apr-17 23:00S 66°54' W 148°54'7 7.1 260 / 251003.7 -1.8 -1.3
2018-Apr-17 22:00S 66°54' W 149°12'6 6.4 260 / 241004.3 -1.8 -1.4
2018-Apr-17 21:00S 67°00' W 149°18'0 0.0 260 / 201005.0 -2.1 -1.4
2018-Apr-17 20:00S 67°00' W 149°18'0 0.0 260 / 221005.6 -2.7 -1.4
2018-Apr-17 19:00S 67°00' W 149°18'6 6.4 250 / 231006.2 -3.5 -1.4
2018-Apr-17 18:00S 66°54' W 149°24'9 9.4 260 / 261006.7 -4.0 -1.4
2018-Apr-17 17:00S 66°54' W 149°48'9 9.4 260 / 241007.9 -4.5 -1.4
2018-Apr-17 16:00S 66°54' W 150°12'9 9.4 260 / 231008.8 -5.2 -1.6
2018-Apr-17 15:00S 66°54' W 150°36'1111.1 260 / 201009.7 -5.8 -1.6
2018-Apr-17 14:00S 67°00' W 151°00'0 0.0 250 / 201010.5 -6.0 -1.6
2018-Apr-17 13:00S 67°00' W 151°00'0 0.0 250 / 231010.9 -6.4 -1.6
2018-Apr-17 12:00S 67°00' W 151°00'0 0.0 240 / 261010.7 -6.9 -1.6
2018-Apr-17 11:00S 67°00' W 151°00'0 0.0 240 / 251010.3 -7.2 -1.6
2018-Apr-17 10:00S 67°00' W 151°00'0 0.0 240 / 251009.9 -7.7 -1.6
2018-Apr-17 09:00S 67°00' W 151°00'0 0.0 230 / 251009.3 -7.6 -1.7
2018-Apr-17 08:00S 67°00' W 151°00'6 6.4 220 / 281008.7 -9.7 -1.7
2018-Apr-17 07:00S 66°54' W 150°54'2 2.4 210 / 321007.9 -9.5 -1.6
2018-Apr-17 06:00S 66°54' W 150°48'2 2.4 220 / 361006.8 -8.7 -1.6
2018-Apr-17 05:00S 66°54' W 150°54'8 7.6 230 / 391005.4 -7.6 -1.6
2018-Apr-17 04:00S 67°00' W 151°06'2 2.3 230 / 381005.0 -7.7 -1.6
2018-Apr-17 03:00S 67°00' W 151°00'0 0.0 230 / 361005.0 -7.7 -1.6
2018-Apr-17 02:00S 67°00' W 151°00'0 0.0 240 / 341004.7 -8.0 -1.6
2018-Apr-17 01:00S 67°00' W 151°00'0 0.0 240 / 341004.4 -8.2 -1.6
2018-Apr-17 00:00S 67°00' W 151°00'0 0.0 240 / 321004.0 -8.5 -1.6
2018-Apr-16 23:00S 67°00' W 151°00'0 0.0 230 / 301003.7 -9.2 -1.6
2018-Apr-16 22:00S 67°00' W 151°00'0 0.0 230 / 291003.4 -9.8 -1.6
2018-Apr-16 21:00S 67°00' W 151°00'0 0.0 230 / 291003.2 -10.4 -1.6
2018-Apr-16 20:00S 67°00' W 151°00'2 2.3 220 / 291002.7 -10.7 -1.6
2018-Apr-16 19:00S 67°00' W 150°54'6 6.4 220 / 311001.9 -11.1 -1.6
2018-Apr-16 18:00S 66°54' W 150°48'2 2.4 210 / 301001.2 -11.2 -1.6
2018-Apr-16 17:00S 66°54' W 150°42'6 6.4 220 / 311000.3 -11.2 -1.5
2018-Apr-16 16:00S 67°00' W 150°48'2 2.3 220 / 33999.4 -11.7 -1.5
2018-Apr-16 15:00S 67°00' W 150°54'0 0.0 220 / 35998.7 -12.1 -1.6
2018-Apr-16 14:00S 67°00' W 150°54'6 6.4 220 / 35997.7 -11.8 -1.5
2018-Apr-16 13:00S 66°54' W 150°48'0 0.0 210 / 35996.7 -11.7 -1.5
2018-Apr-16 12:00S 66°54' W 150°48'6 6.4 220 / 35995.6 -11.2 -1.5
2018-Apr-16 11:00S 67°00' W 150°54'0 0.0 220 / 37994.4 -11.3 -1.6
2018-Apr-16 10:00S 67°00' W 150°54'0 0.0 220 / 36993.7 -11.5 -1.6
2018-Apr-16 09:00S 67°00' W 150°54'6 6.4 210 / 37992.8 -11.6 -1.6
2018-Apr-16 08:00S 66°54' W 150°48'0 0.0 210 / 37991.9 -11.6 -1.5
2018-Apr-16 07:00S 66°54' W 150°48'6 6.4 220 / 36990.8 -11.4 -1.5
2018-Apr-16 06:00S 67°00' W 150°54'0 0.0 230 / 37989.9 -10.4 -1.5
2018-Apr-16 05:00S 67°00' W 150°54'2 2.3 220 / 37989.7 -11.7 -1.6
2018-Apr-16 04:00S 67°00' W 150°48'6 6.0 230 / 36989.5 -11.3 -1.5
2018-Apr-16 03:00S 66°54' W 150°48'2 2.4 230 / 36989.0 -10.9 -1.4
2018-Apr-16 02:00S 66°54' W 150°54'6 6.4 230 / 35988.4 -10.7 -1.5
2018-Apr-16 01:00S 67°00' W 151°00'0 0.0 230 / 36988.4 -10.7 -1.6
2018-Apr-16 00:00S 67°00' W 151°00'6 6.0 230 / 35987.9 -10.6 -1.5
2018-Apr-15 23:00S 66°54' W 151°00'6 6.4 230 / 35987.9 -10.7 -1.5
2018-Apr-15 22:00S 66°48' W 150°54'2 2.4 230 / 37987.7 -10.8 -1.5
2018-Apr-15 21:00S 66°48' W 150°48'6 6.5 230 / 37987.2 -10.8 -1.4
2018-Apr-15 20:00S 66°42' W 150°42'2 2.4 230 / 40986.7 -10.7 -1.4
2018-Apr-15 19:00S 66°42' W 150°36'2 2.4 220 / 41986.4 -10.9 -1.4
2018-Apr-15 18:00S 66°42' W 150°30'6 6.5 220 / 40986.2 -11.3 -1.4
2018-Apr-15 17:00S 66°36' W 150°24'2 2.4 230 / 41985.9 -11.4 -1.4
2018-Apr-15 16:00S 66°36' W 150°18'0 0.0 220 / 42985.5 -11.4 -1.3
2018-Apr-15 15:00S 66°36' W 150°18'6 6.0 230 / 42985.1 -11.5 -1.3
2018-Apr-15 14:00S 66°30' W 150°18'0 0.0 230 / 40984.8 -11.0 -1.2
2018-Apr-15 13:00S 66°30' W 150°18'2 2.4 240 / 41984.4 -10.5 -1.2
2018-Apr-15 12:00S 66°30' W 150°24'0 0.0 240 / 38984.4 -10.5 -1.2
2018-Apr-15 11:00S 66°30' W 150°24'2 2.4 230 / 37984.6 -10.6 -1.3
2018-Apr-15 10:00S 66°30' W 150°30'0 0.0 230 / 36984.5 -11.0 -1.2
2018-Apr-15 09:00S 66°30' W 150°30'0 0.0 230 / 37984.7 -11.2 -1.2
2018-Apr-15 08:00S 66°30' W 150°30'0 0.0 230 / 36984.4 -10.7 -1.2
2018-Apr-15 07:00S 66°30' W 150°30'5 4.8 230 / 36983.8 -10.6 -1.2
2018-Apr-15 06:00S 66°30' W 150°18'2 2.4 240 / 38983.3 -10.3 -1.2
2018-Apr-15 05:00S 66°30' W 150°12'2 2.4 240 / 37982.5 -9.8 -1.2
2018-Apr-15 04:00S 66°30' W 150°18'5 4.8 240 / 37981.6 -9.0 -1.2
2018-Apr-15 03:00S 66°30' W 150°30'5 4.8 240 / 36981.5 -9.3 -1.2
2018-Apr-15 02:00S 66°30' W 150°42'5 4.8 240 / 34981.4 -9.3 -1.2
2018-Apr-15 01:00S 66°30' W 150°54'8 7.7 230 / 33981.4 -9.3 -1.1
2018-Apr-15 00:00S 66°24' W 151°06'7 7.2 220 / 31980.9 -9.2 -1.2
2018-Apr-14 23:00S 66°24' W 151°24'5 4.8 230 / 32980.4 -8.9 -1.2
2018-Apr-14 22:00S 66°24' W 151°36'5 4.8 230 / 32979.9 -8.6 -1.2
2018-Apr-14 21:00S 66°24' W 151°48'5 4.8 240 / 34979.2 -8.6 -1.2
2018-Apr-14 20:00S 66°24' W 152°00'7 7.2 240 / 33978.7 -9.0 -1.2
2018-Apr-14 19:00S 66°24' W 152°18'8 7.7 240 / 34978.2 -8.9 -1.3
2018-Apr-14 18:00S 66°30' W 152°30'0 0.0 240 / 34977.4 -8.6 -1.3
2018-Apr-14 17:00S 66°30' W 152°30'2 2.4 240 / 34976.6 -8.0 -1.3
2018-Apr-14 16:00S 66°30' W 152°24'2 2.4 230 / 36975.1 -7.0 -1.3
2018-Apr-14 15:00S 66°30' W 152°18'2 2.4 210 / 38972.8 -5.8 -1.4
2018-Apr-14 14:00S 66°30' W 152°12'6 6.5 210 / 33970.1 -4.8 -1.3
2018-Apr-14 13:00S 66°36' W 152°18'8 7.7 260 / 34968.4 -2.8 -1.3
2018-Apr-14 12:00S 66°42' W 152°30'6 6.5 270 / 29967.1 -4.0 -1.4
2018-Apr-14 11:00S 66°48' W 152°36'6 6.4 270 / 26965.7 -4.0 -1.5
2018-Apr-14 10:00S 66°54' W 152°42'2 2.4 270 / 35965.3 -3.9 -1.5
2018-Apr-14 09:00S 66°54' W 152°36'0 0.0 270 / 30965.2 -3.0 -1.5
2018-Apr-14 08:00S 66°54' W 152°36'2 2.4 280 / 20965.4 -2.1 -1.5
2018-Apr-14 07:00S 66°54' W 152°42'0 0.0 270 / 25965.7 -2.2 -1.5
2018-Apr-14 06:00S 66°54' W 152°42'7 7.1 270 / 24965.7 -2.3 -1.5
2018-Apr-14 05:00S 66°54' W 153°00'1111.1 270 / 21966.2 -1.4 -1.5
2018-Apr-14 04:00S 67°00' W 153°24'9 9.3 250 / 24966.4 -2.8 -1.5
2018-Apr-14 03:00S 66°54' W 153°42'0 0.0 240 / 21966.6 -2.9 -1.5
2018-Apr-14 02:00S 66°54' W 153°42'0 0.0 240 / 21966.6 -2.8 -1.5
2018-Apr-14 01:00S 66°54' W 153°42'0 0.0 220 / 22966.5 -3.0 -1.5
2018-Apr-14 00:00S 66°54' W 153°42'2 2.4 210 / 21966.5 -3.0 -1.5
2018-Apr-13 23:00S 66°54' W 153°48'9 9.4 190 / 16966.7 -2.9 -1.5
2018-Apr-13 22:00S 66°54' W 154°12'1111.1 170 / 16967.6 -2.8 -1.4
2018-Apr-13 21:00S 67°00' W 154°36'1111.1 160 / 15969.2 -2.9 -1.4
2018-Apr-13 20:00S 66°54' W 155°00'2 2.4 150 / 16971.1 -3.0 -1.4
2018-Apr-13 19:00S 66°54' W 155°06'6 6.0 130 / 13973.0 -3.0 -1.4
2018-Apr-13 18:00S 67°00' W 155°06'0 0.0 110 / 14974.9 -3.1 -1.4
2018-Apr-13 17:00S 67°00' W 155°06'6 6.4 100 / 15976.8 -2.9 -1.4
2018-Apr-13 16:00S 66°54' W 155°12'9 9.3 100 / 16978.8 -2.9 -1.4
2018-Apr-13 15:00S 67°00' W 155°30'9 9.4 080 / 14980.9 -2.9 -1.4
2018-Apr-13 14:00S 67°00' W 155°54'1111.1 070 / 14982.8 -2.7 -1.4
2018-Apr-13 13:00S 66°54' W 156°18'8 7.6 050 / 14984.7 -2.8 -1.3
2018-Apr-13 12:00S 67°00' W 156°30'6 6.0 040 / 16986.7 -2.9 -1.2
2018-Apr-13 11:00S 66°54' W 156°30'6 6.0 040 / 16988.3 -2.8 -1.2
2018-Apr-13 10:00S 67°00' W 156°30'0 0.0 040 / 14990.2 -3.0 -1.2
2018-Apr-13 09:00S 67°00' W 156°30'9 9.3 030 / 11991.9 -2.9 -1.2
2018-Apr-13 08:00S 66°54' W 156°48'1111.1 020 / 11993.4 -3.0 -1.3
2018-Apr-13 07:00S 67°00' W 157°12'9 9.4 010 / 12994.9 -3.0 -1.3
2018-Apr-13 06:00S 67°00' W 157°36'5 4.7 360 / 13996.3 -2.8 -1.3
2018-Apr-13 05:00S 67°00' W 157°48'6 6.0 350 / 11997.6 -2.9 -1.2
2018-Apr-13 04:00S 66°54' W 157°48'0 0.0 330 / 9998.9 -2.7 -1.2
2018-Apr-13 03:00S 66°54' W 157°48'6 6.4 310 / 121000.7 -2.5 -1.1
2018-Apr-13 02:00S 67°00' W 157°54'7 7.0 320 / 131002.0 -2.4 -1.1
2018-Apr-13 01:00S 67°00' W 158°12'1211.7 310 / 111003.2 -2.1 -1.1
2018-Apr-13 00:00S 67°00' W 158°42'1111.1 300 / 121004.4 -2.3 -1.2
2018-Apr-12 23:00S 66°54' W 159°06'6 6.4 290 / 121005.3 -2.2 -1.3
2018-Apr-12 22:00S 67°00' W 159°12'0 0.0 310 / 151006.3 -2.0 -1.3
2018-Apr-12 21:00S 67°00' W 159°12'0 0.0 310 / 171007.3 -2.0 -1.3
2018-Apr-12 20:00S 67°00' W 159°12'0 0.0 300 / 191007.9 -1.7 -1.3
2018-Apr-12 19:00S 67°00' W 159°12'9 9.3 290 / 181008.2 -0.7 -1.3
2018-Apr-12 18:00S 66°54' W 159°30'1211.8 290 / 161009.1 -0.0 -1.3
2018-Apr-12 17:00S 66°54' W 160°00'9 9.4 290 / 191009.8 -0.3 -1.3
2018-Apr-12 16:00S 66°54' W 160°24'5 4.7 290 / 201009.9 0.2 -1.3
2018-Apr-12 15:00S 66°54' W 160°36'0 0.0 280 / 201009.8 -1.1 -1.3
2018-Apr-12 14:00S 66°54' W 160°36'6 6.0 270 / 201010.0 -1.3 -1.3
2018-Apr-12 13:00S 67°00' W 160°36'   280 / 211010.3 -1.4 -1.3
Track history (hours):
 
Tides and Currents Weather Stations Pressure Air Temp Water Temp Dewpoint Dewpoint Depression Visibility Wind Speed Wind Dir Waves Ship Positions

Oceanographic research ship Nathaniel B. Palmer (USA)

Contact: Ethan Norris, ethan.norris.contractor@usap.gov

Detailed information on ship capabilities available from University of Delaware's Ocean Information Center and ARCUS's ALIAS (Arctic Logistics Information and Support) project.

Owner: OFFSHORE SERVICE VESSELS, Cut Off, LA. More information available from US FCC via Universal Licensing System and Coast Guard Vessel Documentation Center.

Last reported at 2018-Apr-22 13:00 UTC. Time now 2018-Apr-22 13:55 UTC.
Position S 67°00' W 127°42'.

Type: Other ship. MMSI: 366610000.

Wind from 110 at 17 knots

Barometer 991.0 mb
Air temperature -2.9 ° C
Water temperature -1.5 ° C

Date/timePositionNaut miles runAvg speedWind from/ knotsBaromVisibWave heightAir tempDewpointWater temp
2018-Apr-22 13:00S 67°00' W 127°42'0 0.0 110 / 17991.0 -2.9 -1.5
2018-Apr-22 12:00S 67°00' W 127°42'0 0.0 110 / 18990.3 -3.3 -1.5
2018-Apr-22 11:00S 67°00' W 127°42'0 0.0 110 / 19989.4 -3.0 -1.5
2018-Apr-22 10:00S 67°00' W 127°42'8 7.6 110 / 18988.8 -3.0 -1.5
2018-Apr-22 09:00S 66°54' W 127°54'9 9.4 110 / 18988.2 -3.0 -1.5
2018-Apr-22 08:00S 66°54' W 128°18'9 9.4 110 / 19987.7 -2.8 -1.4
2018-Apr-22 07:00S 66°54' W 128°42'9 9.4 100 / 20987.3 -3.0 -1.4
2018-Apr-22 06:00S 66°54' W 129°06'7 7.1 100 / 19987.1 -3.1 -1.5
2018-Apr-22 05:00S 66°54' W 129°24'2 2.4 100 / 19986.9 -3.0 -1.5
2018-Apr-22 04:00S 66°54' W 129°30'6 6.0 090 / 18987.0 -3.0 -1.5
2018-Apr-22 03:00S 67°00' W 129°30'0 0.0 090 / 18987.1 -3.2 -1.5
2018-Apr-22 02:00S 67°00' W 129°30'0 0.0 090 / 16987.4 -3.2 -1.5
2018-Apr-22 01:00S 67°00' W 129°30'7 7.0 080 / 15987.6 -3.4 -1.5
2018-Apr-22 00:00S 67°00' W 129°48'1111.1 080 / 15987.4 -3.3 -1.4
2018-Apr-21 23:00S 66°54' W 130°12'1313.2 080 / 15987.3 -2.9 -1.4
2018-Apr-21 22:00S 67°00' W 130°42'1111.1 080 / 15987.4 -3.0 -1.4
2018-Apr-21 21:00S 66°54' W 131°06'6 6.4 080 / 15987.6 -2.7 -1.5
2018-Apr-21 20:00S 67°00' W 131°12'0 0.0 070 / 13987.9 -2.4 -1.5
2018-Apr-21 19:00S 67°00' W 131°12'0 0.0 070 / 13988.2 -2.5 -1.5
2018-Apr-21 18:00S 67°00' W 131°12'0 0.0 070 / 13988.5 -2.3 -1.5
2018-Apr-21 17:00S 67°00' W 131°12'6 6.4 070 / 11988.9 -2.2 -1.5
2018-Apr-21 16:00S 66°54' W 131°18'1111.1 060 / 11989.1 -2.3 -1.4
2018-Apr-21 15:00S 67°00' W 131°42'1313.2 050 / 10989.4 -2.1 -1.4
2018-Apr-21 14:00S 66°54' W 132°12'9 9.4 050 / 10989.6 -2.0 -1.4
2018-Apr-21 13:00S 66°54' W 132°36'9 9.3 050 / 10989.8 -2.0 -1.4
2018-Apr-21 12:00S 67°00' W 132°54'2 2.3 040 / 10990.3 -2.1 -1.4
2018-Apr-21 11:00S 67°00' W 133°00'0 0.0 050 / 8990.9 -2.0 -1.5
2018-Apr-21 10:00S 67°00' W 133°00'0 0.0 040 / 6991.4 -2.1 -1.4
2018-Apr-21 09:00S 67°00' W 133°00'6 6.0 030 / 5992.1 -2.1 -1.4
2018-Apr-21 08:00S 66°54' W 133°00'1111.1 360 / 5992.6 -2.0 -1.4
2018-Apr-21 07:00S 67°00' W 133°24'9 9.4 350 / 7993.0 -1.9 -1.4
2018-Apr-21 06:00S 67°00' W 133°48'9 9.4 340 / 7993.4 -1.8 -1.4
2018-Apr-21 05:00S 67°00' W 134°12'2 2.3 350 / 4993.9 -1.8 -1.5
2018-Apr-21 04:00S 67°00' W 134°18'0 0.0 320 / 6994.6 -1.7 -1.5
2018-Apr-21 03:00S 67°00' W 134°18'0 0.0 290 / 7995.2 -1.6 -1.5
2018-Apr-21 02:00S 67°00' W 134°18'0 0.0 290 / 10995.8 -1.5 -1.5
2018-Apr-21 01:00S 67°00' W 134°18'1211.7 300 / 9996.4 -1.5 -1.4
2018-Apr-21 00:00S 67°00' W 134°48'9 9.4 300 / 9996.7 -1.6 -1.4
2018-Apr-20 23:00S 67°00' W 135°12'9 9.3 300 / 10997.1 -1.7 -1.3
2018-Apr-20 22:00S 66°54' W 135°30'6 6.0 310 / 11997.5 -1.6 -1.3
2018-Apr-20 21:00S 67°00' W 135°30'6 6.0 300 / 12998.2 -1.6 -1.3
2018-Apr-20 20:00S 66°54' W 135°30'6 6.0 300 / 14998.6 -1.9 -1.3
2018-Apr-20 19:00S 67°00' W 135°30'5 4.7 300 / 15999.1 -1.8 -1.3
2018-Apr-20 18:00S 67°00' W 135°42'9 9.4 300 / 15999.4 -1.8 -1.3
2018-Apr-20 17:00S 67°00' W 136°06'1111.1 300 / 15999.8 -1.8 -1.3
2018-Apr-20 16:00S 66°54' W 136°30'7 7.1 300 / 161000.3 -1.7 -1.3
2018-Apr-20 15:00S 66°54' W 136°48'0 0.0 300 / 171000.8 -1.7 -1.3
2018-Apr-20 14:00S 66°54' W 136°48'0 0.0 300 / 171001.4 -1.9 -1.3
2018-Apr-20 13:00S 66°54' W 136°48'0 0.0 300 / 191002.0 -1.9 -1.2
2018-Apr-20 12:00S 66°54' W 136°48'2 2.4 300 / 191002.5 -1.9 -1.2
2018-Apr-20 11:00S 66°54' W 136°54'9 9.3 300 / 191002.9 -2.1 -1.3
2018-Apr-20 10:00S 67°00' W 137°12'7 7.0 310 / 191003.5 -2.2 -1.4
2018-Apr-20 09:00S 67°00' W 137°30'1313.2 310 / 161004.0 -2.1 -1.4
2018-Apr-20 08:00S 66°54' W 138°00'5 4.7 310 / 161004.4 -2.1 -1.4
2018-Apr-20 07:00S 66°54' W 138°12'0 0.0 310 / 181004.7 -2.0 -1.4
2018-Apr-20 06:00S 66°54' W 138°12'0 0.0 320 / 171005.2 -2.1 -1.4
2018-Apr-20 05:00S 66°54' W 138°12'0 0.0 320 / 151005.7 -2.4 -1.4
2018-Apr-20 04:00S 66°54' W 138°12'9 9.3 320 / 151006.2 -2.5 -1.4
2018-Apr-20 03:00S 67°00' W 138°30'1111.1 310 / 131006.6 -2.3 -1.4
2018-Apr-20 02:00S 66°54' W 138°54'9 9.4 320 / 121006.9 -2.4 -1.4
2018-Apr-20 01:00S 66°54' W 139°18'6 6.4 330 / 121007.1 -2.3 -1.3
2018-Apr-20 00:00S 67°00' W 139°24'0 0.0 330 / 101007.6 -2.4 -1.3
2018-Apr-19 23:00S 67°00' W 139°24'6 6.0 320 / 101008.0 -2.4 -1.3
2018-Apr-19 22:00S 66°54' W 139°24'2 2.4 310 / 111008.2 -2.7 -1.3
2018-Apr-19 21:00S 66°54' W 139°30'5 4.7 310 / 111008.3 -3.0 -1.3
2018-Apr-19 20:00S 66°54' W 139°42'1313.2 300 / 101008.3 -3.1 -1.3
2018-Apr-19 19:00S 67°00' W 140°12'9 9.4 290 / 111008.4 -3.1 -1.3
2018-Apr-19 18:00S 67°00' W 140°36'6 6.4 280 / 121008.6 -3.0 -1.3
2018-Apr-19 17:00S 66°54' W 140°42'6 6.0 280 / 111008.5 -3.1 -1.3
2018-Apr-19 16:00S 67°00' W 140°42'6 6.0 260 / 101008.6 -2.8 -1.3
2018-Apr-19 15:00S 66°54' W 140°42'6 6.4 240 / 121008.5 -2.4 -1.3
2018-Apr-19 14:00S 67°00' W 140°48'5 4.7 250 / 151008.6 -2.2 -1.3
2018-Apr-19 13:00S 67°00' W 141°00'1111.1 250 / 171008.5 -2.0 -1.4
2018-Apr-19 12:00S 66°54' W 141°24'9 9.4 260 / 151008.3 -1.7 -1.4
2018-Apr-19 11:00S 66°54' W 141°48'5 4.7 270 / 161008.3 -1.6 -1.4
2018-Apr-19 10:00S 66°54' W 142°00'0 0.0 270 / 171008.3 -1.5 -1.2
2018-Apr-19 09:00S 66°54' W 142°00'0 0.0 270 / 171007.8 -1.4 -1.2
2018-Apr-19 08:00S 66°54' W 142°00'6 6.4 270 / 201007.4 -1.4 -1.2
2018-Apr-19 07:00S 67°00' W 142°06'9 9.4 260 / 161007.4 -1.3 -1.2
2018-Apr-19 06:00S 67°00' W 142°30'1211.7 250 / 171007.2 -1.3 -1.1
2018-Apr-19 05:00S 67°00' W 143°00'7 7.0 260 / 181007.1 -1.3 -1.0
2018-Apr-19 04:00S 67°00' W 143°18'0 0.0 260 / 181007.2 -1.3 -1.0
2018-Apr-19 03:00S 67°00' W 143°18'0 0.0 250 / 201007.1 -1.3 -1.0
2018-Apr-19 02:00S 67°00' W 143°18'6 6.0 250 / 211006.8 -1.4 -1.0
2018-Apr-19 01:00S 66°54' W 143°18'8 7.6 250 / 211006.6 -1.4 -1.0
2018-Apr-19 00:00S 67°00' W 143°30'1111.1 250 / 211006.3 -1.5 -1.1
2018-Apr-18 23:00S 66°54' W 143°54'9 9.4 260 / 211006.2 -1.6 -1.2
2018-Apr-18 22:00S 66°54' W 144°18'7 7.1 260 / 201006.2 -1.6 -1.3
2018-Apr-18 21:00S 66°54' W 144°36'0 0.0 250 / 201006.1 -1.6 -1.3
2018-Apr-18 20:00S 66°54' W 144°36'0 0.0 250 / 211005.9 -1.4 -1.3
2018-Apr-18 19:00S 66°54' W 144°36'0 0.0 250 / 211005.6 -1.4 -1.3
2018-Apr-18 18:00S 66°54' W 144°36'7 7.1 250 / 211005.2 -1.3 -1.3
2018-Apr-18 17:00S 66°54' W 144°54'1111.1 250 / 221004.9 -1.4 -1.4
2018-Apr-18 16:00S 67°00' W 145°18'9 9.3 250 / 231004.9 -1.4 -1.4
2018-Apr-18 15:00S 66°54' W 145°36'9 9.3 250 / 241005.1 -1.3 -1.3
2018-Apr-18 14:00S 67°00' W 145°54'0 0.0 260 / 261005.1 -1.2 -1.2
2018-Apr-18 13:00S 67°00' W 145°54'0 0.0 250 / 271004.9 -1.1 -1.2
2018-Apr-18 12:00S 67°00' W 145°54'0 0.0 260 / 261004.4 -1.1 -1.2
2018-Apr-18 11:00S 67°00' W 145°54'6 6.4 260 / 201004.2 -1.5 -1.2
2018-Apr-18 10:00S 66°54' W 146°00'7 7.1 250 / 141004.3 -2.5 -1.2
2018-Apr-18 09:00S 66°54' W 146°18'9 9.4 240 / 131004.6 -2.7 -1.3
2018-Apr-18 08:00S 66°54' W 146°42'1111.1 240 / 131004.4 -2.6 -1.2
2018-Apr-18 07:00S 67°00' W 147°06'1111.1 230 / 171004.2 -2.0 -1.2
2018-Apr-18 06:00S 66°54' W 147°30'2 2.4 240 / 211004.0 -1.6 -1.3
2018-Apr-18 05:00S 66°54' W 147°36'6 6.0 240 / 231003.8 -1.6 -1.2
2018-Apr-18 04:00S 67°00' W 147°36'0 0.0 240 / 251003.5 -1.6 -1.2
2018-Apr-18 03:00S 67°00' W 147°36'6 6.4 240 / 251003.2 -1.6 -1.2
2018-Apr-18 02:00S 66°54' W 147°42'7 7.1 240 / 291003.0 -1.6 -1.2
2018-Apr-18 01:00S 66°54' W 148°00'1111.1 250 / 281002.7 -1.5 -1.3
2018-Apr-18 00:00S 67°00' W 148°24'1313.2 260 / 271003.1 -1.7 -1.3
2018-Apr-17 23:00S 66°54' W 148°54'7 7.1 260 / 251003.7 -1.8 -1.3
2018-Apr-17 22:00S 66°54' W 149°12'6 6.4 260 / 241004.3 -1.8 -1.4
2018-Apr-17 21:00S 67°00' W 149°18'0 0.0 260 / 201005.0 -2.1 -1.4
2018-Apr-17 20:00S 67°00' W 149°18'0 0.0 260 / 221005.6 -2.7 -1.4
2018-Apr-17 19:00S 67°00' W 149°18'6 6.4 250 / 231006.2 -3.5 -1.4
2018-Apr-17 18:00S 66°54' W 149°24'9 9.4 260 / 261006.7 -4.0 -1.4
2018-Apr-17 17:00S 66°54' W 149°48'9 9.4 260 / 241007.9 -4.5 -1.4
2018-Apr-17 16:00S 66°54' W 150°12'9 9.4 260 / 231008.8 -5.2 -1.6
2018-Apr-17 15:00S 66°54' W 150°36'1111.1 260 / 201009.7 -5.8 -1.6
2018-Apr-17 14:00S 67°00' W 151°00'0 0.0 250 / 201010.5 -6.0 -1.6
2018-Apr-17 13:00S 67°00' W 151°00'0 0.0 250 / 231010.9 -6.4 -1.6
2018-Apr-17 12:00S 67°00' W 151°00'0 0.0 240 / 261010.7 -6.9 -1.6
2018-Apr-17 11:00S 67°00' W 151°00'0 0.0 240 / 251010.3 -7.2 -1.6
2018-Apr-17 10:00S 67°00' W 151°00'0 0.0 240 / 251009.9 -7.7 -1.6
2018-Apr-17 09:00S 67°00' W 151°00'0 0.0 230 / 251009.3 -7.6 -1.7
2018-Apr-17 08:00S 67°00' W 151°00'6 6.4 220 / 281008.7 -9.7 -1.7
2018-Apr-17 07:00S 66°54' W 150°54'2 2.4 210 / 321007.9 -9.5 -1.6
2018-Apr-17 06:00S 66°54' W 150°48'2 2.4 220 / 361006.8 -8.7 -1.6
2018-Apr-17 05:00S 66°54' W 150°54'8 7.6 230 / 391005.4 -7.6 -1.6
2018-Apr-17 04:00S 67°00' W 151°06'2 2.3 230 / 381005.0 -7.7 -1.6
2018-Apr-17 03:00S 67°00' W 151°00'0 0.0 230 / 361005.0 -7.7 -1.6
2018-Apr-17 02:00S 67°00' W 151°00'0 0.0 240 / 341004.7 -8.0 -1.6
2018-Apr-17 01:00S 67°00' W 151°00'0 0.0 240 / 341004.4 -8.2 -1.6
2018-Apr-17 00:00S 67°00' W 151°00'0 0.0 240 / 321004.0 -8.5 -1.6
2018-Apr-16 23:00S 67°00' W 151°00'0 0.0 230 / 301003.7 -9.2 -1.6
2018-Apr-16 22:00S 67°00' W 151°00'0 0.0 230 / 291003.4 -9.8 -1.6
2018-Apr-16 21:00S 67°00' W 151°00'0 0.0 230 / 291003.2 -10.4 -1.6
2018-Apr-16 20:00S 67°00' W 151°00'2 2.3 220 / 291002.7 -10.7 -1.6
2018-Apr-16 19:00S 67°00' W 150°54'6 6.4 220 / 311001.9 -11.1 -1.6
2018-Apr-16 18:00S 66°54' W 150°48'2 2.4 210 / 301001.2 -11.2 -1.6
2018-Apr-16 17:00S 66°54' W 150°42'6 6.4 220 / 311000.3 -11.2 -1.5
2018-Apr-16 16:00S 67°00' W 150°48'2 2.3 220 / 33999.4 -11.7 -1.5
2018-Apr-16 15:00S 67°00' W 150°54'0 0.0 220 / 35998.7 -12.1 -1.6
2018-Apr-16 14:00S 67°00' W 150°54'6 6.4 220 / 35997.7 -11.8 -1.5
2018-Apr-16 13:00S 66°54' W 150°48'0 0.0 210 / 35996.7 -11.7 -1.5
2018-Apr-16 12:00S 66°54' W 150°48'6 6.4 220 / 35995.6 -11.2 -1.5
2018-Apr-16 11:00S 67°00' W 150°54'0 0.0 220 / 37994.4 -11.3 -1.6
2018-Apr-16 10:00S 67°00' W 150°54'0 0.0 220 / 36993.7 -11.5 -1.6
2018-Apr-16 09:00S 67°00' W 150°54'6 6.4 210 / 37992.8 -11.6 -1.6
2018-Apr-16 08:00S 66°54' W 150°48'0 0.0 210 / 37991.9 -11.6 -1.5
2018-Apr-16 07:00S 66°54' W 150°48'6 6.4 220 / 36990.8 -11.4 -1.5
2018-Apr-16 06:00S 67°00' W 150°54'0 0.0 230 / 37989.9 -10.4 -1.5
2018-Apr-16 05:00S 67°00' W 150°54'2 2.3 220 / 37989.7 -11.7 -1.6
2018-Apr-16 04:00S 67°00' W 150°48'6 6.0 230 / 36989.5 -11.3 -1.5
2018-Apr-16 03:00S 66°54' W 150°48'2 2.4 230 / 36989.0 -10.9 -1.4
2018-Apr-16 02:00S 66°54' W 150°54'6 6.4 230 / 35988.4 -10.7 -1.5
2018-Apr-16 01:00S 67°00' W 151°00'0 0.0 230 / 36988.4 -10.7 -1.6
2018-Apr-16 00:00S 67°00' W 151°00'6 6.0 230 / 35987.9 -10.6 -1.5
2018-Apr-15 23:00S 66°54' W 151°00'6 6.4 230 / 35987.9 -10.7 -1.5
2018-Apr-15 22:00S 66°48' W 150°54'2 2.4 230 / 37987.7 -10.8 -1.5
2018-Apr-15 21:00S 66°48' W 150°48'6 6.5 230 / 37987.2 -10.8 -1.4
2018-Apr-15 20:00S 66°42' W 150°42'2 2.4 230 / 40986.7 -10.7 -1.4
2018-Apr-15 19:00S 66°42' W 150°36'2 2.4 220 / 41986.4 -10.9 -1.4
2018-Apr-15 18:00S 66°42' W 150°30'6 6.5 220 / 40986.2 -11.3 -1.4
2018-Apr-15 17:00S 66°36' W 150°24'2 2.4 230 / 41985.9 -11.4 -1.4
2018-Apr-15 16:00S 66°36' W 150°18'0 0.0 220 / 42985.5 -11.4 -1.3
2018-Apr-15 15:00S 66°36' W 150°18'6 6.0 230 / 42985.1 -11.5 -1.3
2018-Apr-15 14:00S 66°30' W 150°18'0 0.0 230 / 40984.8 -11.0 -1.2
2018-Apr-15 13:00S 66°30' W 150°18'2 2.4 240 / 41984.4 -10.5 -1.2
2018-Apr-15 12:00S 66°30' W 150°24'0 0.0 240 / 38984.4 -10.5 -1.2
2018-Apr-15 11:00S 66°30' W 150°24'2 2.4 230 / 37984.6 -10.6 -1.3
2018-Apr-15 10:00S 66°30' W 150°30'0 0.0 230 / 36984.5 -11.0 -1.2
2018-Apr-15 09:00S 66°30' W 150°30'0 0.0 230 / 37984.7 -11.2 -1.2
2018-Apr-15 08:00S 66°30' W 150°30'0 0.0 230 / 36984.4 -10.7 -1.2
2018-Apr-15 07:00S 66°30' W 150°30'5 4.8 230 / 36983.8 -10.6 -1.2
2018-Apr-15 06:00S 66°30' W 150°18'2 2.4 240 / 38983.3 -10.3 -1.2
2018-Apr-15 05:00S 66°30' W 150°12'2 2.4 240 / 37982.5 -9.8 -1.2
2018-Apr-15 04:00S 66°30' W 150°18'5 4.8 240 / 37981.6 -9.0 -1.2
2018-Apr-15 03:00S 66°30' W 150°30'5 4.8 240 / 36981.5 -9.3 -1.2
2018-Apr-15 02:00S 66°30' W 150°42'5 4.8 240 / 34981.4 -9.3 -1.2
2018-Apr-15 01:00S 66°30' W 150°54'8 7.7 230 / 33981.4 -9.3 -1.1
2018-Apr-15 00:00S 66°24' W 151°06'7 7.2 220 / 31980.9 -9.2 -1.2
2018-Apr-14 23:00S 66°24' W 151°24'5 4.8 230 / 32980.4 -8.9 -1.2
2018-Apr-14 22:00S 66°24' W 151°36'5 4.8 230 / 32979.9 -8.6 -1.2
2018-Apr-14 21:00S 66°24' W 151°48'5 4.8 240 / 34979.2 -8.6 -1.2
2018-Apr-14 20:00S 66°24' W 152°00'7 7.2 240 / 33978.7 -9.0 -1.2
2018-Apr-14 19:00S 66°24' W 152°18'8 7.7 240 / 34978.2 -8.9 -1.3
2018-Apr-14 18:00S 66°30' W 152°30'0 0.0 240 / 34977.4 -8.6 -1.3
2018-Apr-14 17:00S 66°30' W 152°30'2 2.4 240 / 34976.6 -8.0 -1.3
2018-Apr-14 16:00S 66°30' W 152°24'2 2.4 230 / 36975.1 -7.0 -1.3
2018-Apr-14 15:00S 66°30' W 152°18'2 2.4 210 / 38972.8 -5.8 -1.4
2018-Apr-14 14:00S 66°30' W 152°12'6 6.5 210 / 33970.1 -4.8 -1.3
2018-Apr-14 13:00S 66°36' W 152°18'8 7.7 260 / 34968.4 -2.8 -1.3
2018-Apr-14 12:00S 66°42' W 152°30'6 6.5 270 / 29967.1 -4.0 -1.4
2018-Apr-14 11:00S 66°48' W 152°36'6 6.4 270 / 26965.7 -4.0 -1.5
2018-Apr-14 10:00S 66°54' W 152°42'2 2.4 270 / 35965.3 -3.9 -1.5
2018-Apr-14 09:00S 66°54' W 152°36'0 0.0 270 / 30965.2 -3.0 -1.5
2018-Apr-14 08:00S 66°54' W 152°36'2 2.4 280 / 20965.4 -2.1 -1.5
2018-Apr-14 07:00S 66°54' W 152°42'0 0.0 270 / 25965.7 -2.2 -1.5
2018-Apr-14 06:00S 66°54' W 152°42'7 7.1 270 / 24965.7 -2.3 -1.5
2018-Apr-14 05:00S 66°54' W 153°00'1111.1 270 / 21966.2 -1.4 -1.5
2018-Apr-14 04:00S 67°00' W 153°24'9 9.3 250 / 24966.4 -2.8 -1.5
2018-Apr-14 03:00S 66°54' W 153°42'0 0.0 240 / 21966.6 -2.9 -1.5
2018-Apr-14 02:00S 66°54' W 153°42'0 0.0 240 / 21966.6 -2.8 -1.5
2018-Apr-14 01:00S 66°54' W 153°42'0 0.0 220 / 22966.5 -3.0 -1.5
2018-Apr-14 00:00S 66°54' W 153°42'2 2.4 210 / 21966.5 -3.0 -1.5
2018-Apr-13 23:00S 66°54' W 153°48'9 9.4 190 / 16966.7 -2.9 -1.5
2018-Apr-13 22:00S 66°54' W 154°12'1111.1 170 / 16967.6 -2.8 -1.4
2018-Apr-13 21:00S 67°00' W 154°36'1111.1 160 / 15969.2 -2.9 -1.4
2018-Apr-13 20:00S 66°54' W 155°00'2 2.4 150 / 16971.1 -3.0 -1.4
2018-Apr-13 19:00S 66°54' W 155°06'6 6.0 130 / 13973.0 -3.0 -1.4
2018-Apr-13 18:00S 67°00' W 155°06'0 0.0 110 / 14974.9 -3.1 -1.4
2018-Apr-13 17:00S 67°00' W 155°06'6 6.4 100 / 15976.8 -2.9 -1.4
2018-Apr-13 16:00S 66°54' W 155°12'9 9.3 100 / 16978.8 -2.9 -1.4
2018-Apr-13 15:00S 67°00' W 155°30'9 9.4 080 / 14980.9 -2.9 -1.4
2018-Apr-13 14:00S 67°00' W 155°54'1111.1 070 / 14982.8 -2.7 -1.4
2018-Apr-13 13:00S 66°54' W 156°18'8 7.6 050 / 14984.7 -2.8 -1.3
2018-Apr-13 12:00S 67°00' W 156°30'6 6.0 040 / 16986.7 -2.9 -1.2
2018-Apr-13 11:00S 66°54' W 156°30'6 6.0 040 / 16988.3 -2.8 -1.2
2018-Apr-13 10:00S 67°00' W 156°30'0 0.0 040 / 14990.2 -3.0 -1.2
2018-Apr-13 09:00S 67°00' W 156°30'9 9.3 030 / 11991.9 -2.9 -1.2
2018-Apr-13 08:00S 66°54' W 156°48'1111.1 020 / 11993.4 -3.0 -1.3
2018-Apr-13 07:00S 67°00' W 157°12'9 9.4 010 / 12994.9 -3.0 -1.3
2018-Apr-13 06:00S 67°00' W 157°36'5 4.7 360 / 13996.3 -2.8 -1.3
2018-Apr-13 05:00S 67°00' W 157°48'6 6.0 350 / 11997.6 -2.9 -1.2
2018-Apr-13 04:00S 66°54' W 157°48'0 0.0 330 / 9998.9 -2.7 -1.2
2018-Apr-13 03:00S 66°54' W 157°48'6 6.4 310 / 121000.7 -2.5 -1.1
2018-Apr-13 02:00S 67°00' W 157°54'7 7.0 320 / 131002.0 -2.4 -1.1
2018-Apr-13 01:00S 67°00' W 158°12'1211.7 310 / 111003.2 -2.1 -1.1
2018-Apr-13 00:00S 67°00' W 158°42'1111.1 300 / 121004.4 -2.3 -1.2
2018-Apr-12 23:00S 66°54' W 159°06'6 6.4 290 / 121005.3 -2.2 -1.3
2018-Apr-12 22:00S 67°00' W 159°12'0 0.0 310 / 151006.3 -2.0 -1.3
2018-Apr-12 21:00S 67°00' W 159°12'0 0.0 310 / 171007.3 -2.0 -1.3
2018-Apr-12 20:00S 67°00' W 159°12'0 0.0 300 / 191007.9 -1.7 -1.3
2018-Apr-12 19:00S 67°00' W 159°12'9 9.3 290 / 181008.2 -0.7 -1.3
2018-Apr-12 18:00S 66°54' W 159°30'1211.8 290 / 161009.1 -0.0 -1.3
2018-Apr-12 17:00S 66°54' W 160°00'9 9.4 290 / 191009.8 -0.3 -1.3
2018-Apr-12 16:00S 66°54' W 160°24'5 4.7 290 / 201009.9 0.2 -1.3
2018-Apr-12 15:00S 66°54' W 160°36'0 0.0 280 / 201009.8 -1.1 -1.3
2018-Apr-12 14:00S 66°54' W 160°36'6 6.0 270 / 201010.0 -1.3 -1.3
2018-Apr-12 13:00S 67°00' W 160°36'   280 / 211010.3 -1.4 -1.3

Dump ship's entire track history